Time;durP1;ratioP1;P1;durP2;ratioP2;P2;SDS_P1;SDS_P2;PMS_P1;PMS_P2;Temp;Humidity;BMP_temperature;BMP_pressure;BME280_temperature;BME280_humidity;BME280_pressure;Samples;Min_cycle;Max_cycle;Signal;HPM_P1;HPM_P2
2021/10/23 00:01:23;;;;;;;46.38;23.50;;;13.00;49.30;;;;;;5049357;28;20045;-55
2021/10/23 00:03:50;;;;;;;18.25;8.60;;;12.90;50.10;;;;;;5031285;28;20049;-63
2021/10/23 00:06:16;;;;;;;14.27;4.68;;;13.00;50.30;;;;;;5048495;28;20025;-57
2021/10/23 00:08:42;;;;;;;32.30;16.27;;;12.90;50.30;;;;;;5049828;28;20078;-56
2021/10/23 00:11:07;;;;;;;14.65;7.25;;;12.90;51.50;;;;;;5051122;28;20025;-56
2021/10/23 00:13:34;;;;;;;16.17;6.50;;;13.00;51.50;;;;;;5051658;28;20517;-56
2021/10/23 00:16:00;;;;;;;12.63;3.78;;;12.90;51.00;;;;;;5033406;28;20032;-56
2021/10/23 00:18:26;;;;;;;12.32;5.40;;;12.90;51.00;;;;;;5051779;28;20021;-58
2021/10/23 00:20:53;;;;;;;10.55;3.25;;;12.80;51.10;;;;;;5033420;28;20112;-54
2021/10/23 00:23:18;;;;;;;9.40;4.53;;;12.80;51.30;;;;;;5033766;28;20593;-56
2021/10/23 00:25:45;;;;;;;8.68;3.47;;;12.80;51.60;;;;;;5052015;28;20112;-58
2021/10/23 00:28:10;;;;;;;11.90;3.13;;;12.70;51.30;;;;;;5033403;28;20029;-57
2021/10/23 00:30:36;;;;;;;10.45;3.13;;;12.60;51.20;;;;;;5051418;28;20025;-59
2021/10/23 00:33:02;;;;;;;9.48;3.40;;;12.60;51.90;;;;;;5032495;28;20040;-56
2021/10/23 00:35:29;;;;;;;12.93;4.47;;;12.60;51.90;;;;;;5034033;28;20059;-57
2021/10/23 00:37:55;;;;;;;7.55;2.95;;;12.50;52.50;;;;;;5032941;28;20068;-58
2021/10/23 00:40:21;;;;;;;8.48;3.15;;;12.50;51.70;;;;;;5051886;28;20033;-57
2021/10/23 00:42:47;;;;;;;9.07;2.80;;;12.60;52.80;;;;;;5051727;28;20039;-57
2021/10/23 00:45:14;;;;;;;8.98;2.88;;;12.60;51.90;;;;;;5033454;28;20029;-53
2021/10/23 00:47:40;;;;;;;8.27;2.88;;;12.60;52.00;;;;;;5033511;28;20025;-55
2021/10/23 00:50:06;;;;;;;8.73;2.75;;;12.60;51.60;;;;;;5054533;28;20052;-57
2021/10/23 00:52:32;;;;;;;5.80;2.30;;;12.60;51.50;;;;;;5055855;28;20456;-55
2021/10/23 00:54:58;;;;;;;8.45;2.58;;;12.70;51.10;;;;;;5036831;28;20450;-57
2021/10/23 00:57:25;;;;;;;9.63;3.10;;;12.60;50.80;;;;;;5037728;28;20053;-51
2021/10/23 00:59:50;;;;;;;7.03;2.33;;;12.60;51.40;;;;;;5037605;28;20025;-55
2021/10/23 01:02:16;;;;;;;7.45;2.70;;;12.60;50.60;;;;;;5054757;28;20494;-54
2021/10/23 01:04:42;;;;;;;7.78;2.50;;;12.50;51.10;;;;;;5055107;28;20462;-51
2021/10/23 01:07:08;;;;;;;6.63;3.25;;;12.40;51.00;;;;;;5054249;28;20119;-53
2021/10/23 01:09:38;;;;;;;8.25;2.33;;;12.40;51.30;;;;;;5055398;28;20032;-55
2021/10/23 01:12:09;;;;;;;6.32;2.28;;;12.50;51.30;;;;;;5054680;28;20039;-55
2021/10/23 01:14:35;;;;;;;9.50;2.53;;;12.40;50.80;;;;;;5054788;28;20029;-55
2021/10/23 01:17:01;;;;;;;9.57;2.63;;;12.40;51.40;;;;;;5053875;28;20055;-57
2021/10/23 01:19:27;;;;;;;9.00;2.65;;;12.40;51.20;;;;;;5054882;28;20037;-57
2021/10/23 01:21:53;;;;;;;6.10;2.58;;;12.40;51.70;;;;;;5035863;28;20083;-61
2021/10/23 01:24:20;;;;;;;12.55;2.70;;;12.50;51.20;;;;;;5036013;28;20029;-57
2021/10/23 01:26:47;;;;;;;10.57;2.65;;;12.40;51.50;;;;;;5036897;28;20040;-56
2021/10/23 01:29:15;;;;;;;7.40;2.15;;;12.50;51.90;;;;;;5053742;28;20182;-55
2021/10/23 01:31:42;;;;;;;6.82;2.17;;;12.50;51.50;;;;;;5054891;28;20025;-54
2021/10/23 01:34:18;;;;;;;8.93;2.60;;;12.50;51.60;;;;;;5053597;28;20028;-57
2021/10/23 01:36:48;;;;;;;6.88;2.20;;;12.60;52.00;;;;;;5054453;28;20033;-57
2021/10/23 01:39:14;;;;;;;8.27;2.17;;;12.60;51.50;;;;;;5035499;28;20098;-54
2021/10/23 01:41:40;;;;;;;5.03;2.20;;;12.50;51.40;;;;;;5036611;28;20033;-56
2021/10/23 01:44:11;;;;;;;5.72;2.00;;;12.40;52.30;;;;;;5035846;28;20036;-57
2021/10/23 01:46:37;;;;;;;7.55;2.45;;;12.40;52.40;;;;;;5054428;28;20029;-58
2021/10/23 01:49:05;;;;;;;5.82;2.33;;;12.50;52.40;;;;;;5053395;28;20036;-56
2021/10/23 01:51:32;;;;;;;9.35;2.05;;;12.50;52.40;;;;;;5054321;28;20155;-57
2021/10/23 01:54:16;;;;;;;8.55;2.17;;;12.40;52.10;;;;;;5053851;28;20029;-59
2021/10/23 01:56:42;;;;;;;7.13;2.45;;;12.50;52.20;;;;;;5053936;28;20033;-53
2021/10/23 01:59:09;;;;;;;8.55;2.25;;;12.40;52.50;;;;;;5053333;28;20058;-56
2021/10/23 02:01:35;;;;;;;7.68;2.30;;;12.50;52.80;;;;;;5053513;28;20052;-56
2021/10/23 02:04:00;;;;;;;6.10;2.30;;;12.60;52.80;;;;;;5053350;28;20462;-58
2021/10/23 02:06:27;;;;;;;7.15;2.28;;;12.70;52.60;;;;;;5036148;28;20033;-57
2021/10/23 02:08:52;;;;;;;8.05;2.55;;;12.70;52.50;;;;;;5053437;28;20475;-57
2021/10/23 02:11:19;;;;;;;8.27;2.42;;;12.80;52.90;;;;;;5053327;28;20017;-55
2021/10/23 02:13:45;;;;;;;7.63;2.22;;;12.80;52.20;;;;;;5019553;28;20119;-58
2021/10/23 02:16:11;;;;;;;8.20;2.38;;;12.80;52.10;;;;;;5052891;28;20104;-56
2021/10/23 02:18:36;;;;;;;9.70;2.53;;;12.80;52.60;;;;;;5053550;28;20021;-59
2021/10/23 02:21:05;;;;;;;5.57;2.22;;;12.80;52.10;;;;;;5053048;28;20373;-58
2021/10/23 02:23:31;;;;;;;6.07;2.25;;;12.80;52.20;;;;;;5053678;28;20055;-57
2021/10/23 02:25:56;;;;;;;6.38;2.22;;;12.70;52.00;;;;;;5053414;28;20510;-58
2021/10/23 02:28:22;;;;;;;9.07;2.78;;;12.80;51.90;;;;;;5034952;28;20028;-58
2021/10/23 02:30:48;;;;;;;6.97;2.60;;;12.90;52.80;;;;;;5053188;28;20032;-58
2021/10/23 02:33:13;;;;;;;8.98;2.45;;;12.90;52.10;;;;;;5034817;28;20418;-55
2021/10/23 02:35:39;;;;;;;7.07;2.45;;;13.00;51.60;;;;;;5053137;28;20059;-56
2021/10/23 02:38:05;;;;;;;7.55;2.00;;;12.90;52.10;;;;;;5052701;28;20047;-56
2021/10/23 02:40:31;;;;;;;7.00;2.20;;;12.90;51.90;;;;;;5035640;28;20029;-56
2021/10/23 02:42:56;;;;;;;6.90;2.53;;;12.80;52.30;;;;;;5052862;28;20489;-54
2021/10/23 02:45:22;;;;;;;8.07;2.55;;;12.90;52.10;;;;;;5052350;28;20024;-56
2021/10/23 02:47:48;;;;;;;7.70;2.08;;;12.90;51.70;;;;;;5053393;28;20025;-59
2021/10/23 02:50:13;;;;;;;5.90;2.30;;;12.90;52.80;;;;;;5052470;28;20123;-59
2021/10/23 02:52:39;;;;;;;7.65;2.47;;;13.00;51.60;;;;;;5035358;28;20033;-56
2021/10/23 02:55:05;;;;;;;6.18;2.25;;;12.90;51.50;;;;;;5052265;28;20411;-55
2021/10/23 02:57:31;;;;;;;7.32;2.63;;;12.90;51.70;;;;;;5052941;28;20028;-59
2021/10/23 02:59:57;;;;;;;8.68;2.55;;;12.90;51.60;;;;;;5035087;28;20025;-56
2021/10/23 03:02:23;;;;;;;8.60;2.60;;;12.80;51.50;;;;;;5052297;28;20557;-58
2021/10/23 03:04:49;;;;;;;6.10;2.30;;;12.70;52.30;;;;;;5035134;28;20027;-53
2021/10/23 03:07:15;;;;;;;8.57;2.58;;;12.80;52.10;;;;;;5049382;28;20115;-55
2021/10/23 03:09:41;;;;;;;9.00;2.45;;;12.90;52.40;;;;;;5051531;28;20116;-54
2021/10/23 03:12:06;;;;;;;37.08;17.73;;;12.90;51.90;;;;;;5049453;28;20037;-59
2021/10/23 03:14:32;;;;;;;15.70;7.85;;;12.90;52.20;;;;;;5050804;28;20048;-52
2021/10/23 03:16:58;;;;;;;30.63;15.98;;;12.90;52.00;;;;;;5050634;28;20362;-56
2021/10/23 03:19:23;;;;;;;25.05;13.30;;;12.80;52.10;;;;;;5049528;28;20025;-56
2021/10/23 03:21:49;;;;;;;31.67;17.25;;;12.80;52.30;;;;;;5050224;28;20371;-56
2021/10/23 03:24:15;;;;;;;16.60;8.57;;;12.80;52.30;;;;;;5049352;28;20456;-54
2021/10/23 03:26:41;;;;;;;12.50;5.90;;;12.80;52.10;;;;;;5050373;28;20069;-57
2021/10/23 03:29:06;;;;;;;10.48;4.82;;;12.70;52.00;;;;;;5031671;28;20029;-59
2021/10/23 03:31:33;;;;;;;17.80;10.25;;;12.70;52.10;;;;;;5049879;28;20032;-54
2021/10/23 03:33:59;;;;;;;13.38;5.63;;;12.70;52.30;;;;;;5031136;28;20029;-57
2021/10/23 03:36:25;;;;;;;11.80;5.43;;;12.70;52.40;;;;;;5048157;28;20249;-56
2021/10/23 03:38:51;;;;;;;13.05;6.10;;;12.60;52.30;;;;;;5050216;28;20455;-56
2021/10/23 03:41:16;;;;;;;14.32;7.93;;;12.70;52.40;;;;;;5050673;28;20480;-57
2021/10/23 03:43:42;;;;;;;8.52;4.10;;;12.70;52.60;;;;;;5033491;28;20033;-55
2021/10/23 03:46:08;;;;;;;10.15;4.13;;;12.60;52.30;;;;;;5033440;28;20489;-57
2021/10/23 03:48:33;;;;;;;12.68;5.78;;;12.70;52.60;;;;;;5050703;28;20036;-55
2021/10/23 03:50:59;;;;;;;9.85;3.10;;;12.70;52.40;;;;;;5059706;28;20079;-56
2021/10/23 03:53:25;;;;;;;8.20;2.65;;;12.70;52.00;;;;;;5070534;28;20024;-55
2021/10/23 03:55:51;;;;;;;8.00;2.55;;;12.70;51.90;;;;;;5071436;28;20067;-55
2021/10/23 03:58:16;;;;;;;7.50;2.63;;;12.70;52.00;;;;;;5071034;28;20389;-58
2021/10/23 04:00:42;;;;;;;10.52;4.63;;;12.70;52.10;;;;;;5071804;28;20025;-56
2021/10/23 04:03:08;;;;;;;6.50;2.88;;;12.60;52.50;;;;;;5070556;28;20020;-56
2021/10/23 04:05:34;;;;;;;7.22;3.42;;;12.60;52.30;;;;;;5070882;28;20085;-56
2021/10/23 04:08:00;;;;;;;5.63;2.50;;;12.50;52.20;;;;;;5071342;28;20024;-55
2021/10/23 04:10:26;;;;;;;9.55;2.85;;;12.50;52.40;;;;;;5070604;28;20478;-55
2021/10/23 04:12:51;;;;;;;8.80;3.15;;;12.50;52.70;;;;;;5070111;28;20033;-54
2021/10/23 04:15:17;;;;;;;6.03;2.60;;;12.40;52.80;;;;;;5070514;28;20021;-56
2021/10/23 04:17:43;;;;;;;9.57;3.30;;;12.50;52.80;;;;;;5071103;28;20385;-56
2021/10/23 04:20:09;;;;;;;8.25;2.83;;;12.50;52.60;;;;;;5069229;28;20106;-57
2021/10/23 04:22:35;;;;;;;14.57;3.03;;;12.50;52.70;;;;;;5069737;28;20465;-59
2021/10/23 04:25:00;;;;;;;8.63;3.00;;;12.50;52.90;;;;;;5071201;28;20029;-50
2021/10/23 04:27:26;;;;;;;7.85;2.95;;;12.50;52.80;;;;;;5070336;28;20466;-56
2021/10/23 04:29:52;;;;;;;10.68;2.95;;;12.50;52.80;;;;;;5069657;28;20024;-55
2021/10/23 04:32:17;;;;;;;7.90;2.60;;;12.50;53.10;;;;;;5070273;28;20060;-57
2021/10/23 04:34:43;;;;;;;7.47;2.53;;;12.50;53.10;;;;;;5070783;28;20020;-54
2021/10/23 04:37:09;;;;;;;7.28;2.80;;;12.50;53.00;;;;;;5068681;28;20027;-56
2021/10/23 04:39:35;;;;;;;9.85;3.08;;;12.50;53.00;;;;;;5070542;28;20482;-54
2021/10/23 04:42:00;;;;;;;7.55;2.60;;;12.50;53.40;;;;;;5071004;28;20040;-51
2021/10/23 04:44:26;;;;;;;11.93;2.90;;;12.50;53.00;;;;;;5070340;28;20027;-55
2021/10/23 04:46:52;;;;;;;7.05;2.53;;;12.50;52.90;;;;;;5070728;28;20035;-55
2021/10/23 04:49:18;;;;;;;9.68;2.70;;;12.50;53.00;;;;;;5067484;28;20067;-57
2021/10/23 04:51:43;;;;;;;8.05;2.50;;;12.50;53.30;;;;;;5050554;28;20029;-54
2021/10/23 04:54:09;;;;;;;11.23;2.85;;;12.50;53.00;;;;;;5050064;28;20036;-56
2021/10/23 04:56:35;;;;;;;5.97;2.22;;;12.50;52.90;;;;;;5050821;28;20523;-55
2021/10/23 04:59:01;;;;;;;6.47;2.50;;;12.50;52.90;;;;;;5050528;28;20033;-57
2021/10/23 05:01:27;;;;;;;8.23;2.67;;;12.60;53.10;;;;;;5050048;28;20029;-54
2021/10/23 05:03:52;;;;;;;9.73;3.15;;;12.60;53.00;;;;;;5050142;28;20040;-56
2021/10/23 05:06:18;;;;;;;6.70;2.25;;;12.70;52.70;;;;;;5050574;28;20025;-56
2021/10/23 05:08:44;;;;;;;6.80;2.58;;;12.70;52.60;;;;;;5032852;28;20447;-55
2021/10/23 05:11:10;;;;;;;8.10;2.83;;;12.70;52.50;;;;;;5032249;28;20045;-52
2021/10/23 05:13:36;;;;;;;5.57;2.45;;;12.70;53.50;;;;;;5032627;28;20083;-55
2021/10/23 05:16:02;;;;;;;7.35;2.70;;;12.70;52.80;;;;;;5050542;28;20546;-58
2021/10/23 05:18:28;;;;;;;8.25;2.88;;;12.70;52.40;;;;;;5031707;28;20056;-53
2021/10/23 05:20:54;;;;;;;6.60;2.60;;;12.70;52.70;;;;;;5050599;28;20092;-53
2021/10/23 05:23:19;;;;;;;12.25;2.85;;;12.70;52.50;;;;;;5049442;28;20029;-54
2021/10/23 05:25:46;;;;;;;8.27;2.88;;;12.60;52.50;;;;;;5050596;28;20029;-52
2021/10/23 05:28:12;;;;;;;8.30;3.00;;;12.60;52.90;;;;;;5049733;28;20076;-54
2021/10/23 05:30:38;;;;;;;8.15;2.50;;;12.60;53.10;;;;;;5050625;28;20025;-52
2021/10/23 05:33:04;;;;;;;11.60;3.47;;;12.70;52.70;;;;;;5050797;28;20377;-51
2021/10/23 05:35:29;;;;;;;9.07;3.33;;;12.70;53.00;;;;;;5034388;28;20025;-55
2021/10/23 05:37:55;;;;;;;8.27;3.20;;;12.70;53.10;;;;;;5054572;28;20053;-56
2021/10/23 05:40:21;;;;;;;11.68;3.10;;;12.70;52.80;;;;;;5053081;28;20098;-54
2021/10/23 05:42:47;;;;;;;7.78;3.17;;;12.80;52.70;;;;;;5054386;28;20075;-53
2021/10/23 05:45:13;;;;;;;8.15;2.97;;;12.80;52.50;;;;;;5035776;28;20028;-53
2021/10/23 05:47:39;;;;;;;6.95;2.80;;;12.80;52.60;;;;;;5054456;28;20462;-53
2021/10/23 05:50:07;;;;;;;6.03;2.90;;;12.80;52.60;;;;;;5048255;28;20051;-56
2021/10/23 05:52:33;;;;;;;10.57;2.85;;;12.70;52.80;;;;;;5073720;28;20115;-55
2021/10/23 05:54:59;;;;;;;10.82;3.15;;;12.80;52.80;;;;;;5073998;28;20025;-55
2021/10/23 05:57:43;;;;;;;11.48;3.20;;;12.70;52.70;;;;;;5071979;28;20035;-54
2021/10/23 06:00:10;;;;;;;;;;;12.70;52.90;;;;;;5073130;28;20024;-58
2021/10/23 06:02:38;;;;;;;11.55;3.35;;;12.90;52.80;;;;;;5073914;28;19908;-53
2021/10/23 06:05:04;;;;;;;6.05;2.60;;;12.90;52.50;;;;;;5074182;28;20036;-58
2021/10/23 06:07:32;;;;;;;12.10;3.03;;;13.00;52.00;;;;;;5073353;28;20020;-57
2021/10/23 06:10:00;;;;;;;9.52;3.10;;;13.00;52.30;;;;;;5074414;28;20117;-58
2021/10/23 06:12:25;;;;;;;9.25;2.65;;;13.00;52.20;;;;;;5072221;28;20033;-57
2021/10/23 06:14:54;;;;;;;11.32;3.15;;;12.90;52.30;;;;;;5074134;28;20486;-54
2021/10/23 06:17:21;;;;;;;8.80;2.50;;;12.90;52.30;;;;;;5073187;28;20028;-55
2021/10/23 06:19:46;;;;;;;9.07;2.63;;;12.80;52.80;;;;;;5073336;28;20430;-55
2021/10/23 06:22:12;;;;;;;12.50;2.97;;;13.00;52.30;;;;;;5073014;28;20027;-62
2021/10/23 06:24:38;;;;;;;10.00;2.55;;;13.00;52.60;;;;;;5072112;28;20109;-56
2021/10/23 06:27:04;;;;;;;7.88;2.70;;;12.90;52.10;;;;;;5072387;28;20028;-56
2021/10/23 06:29:31;;;;;;;9.82;2.97;;;12.90;52.60;;;;;;5072501;28;20020;-57
2021/10/23 06:31:56;;;;;;;7.20;2.97;;;13.00;52.30;;;;;;5072327;28;20020;-59
2021/10/23 06:34:22;;;;;;;11.00;2.95;;;13.00;52.50;;;;;;5070914;28;20473;-58
2021/10/23 06:36:48;;;;;;;5.72;2.60;;;13.10;52.70;;;;;;5072129;28;20024;-57
2021/10/23 06:39:14;;;;;;;7.03;2.47;;;13.20;52.10;;;;;;5073108;28;20021;-59
2021/10/23 06:41:40;;;;;;;9.65;2.55;;;13.20;52.10;;;;;;5072193;28;20060;-57
2021/10/23 06:44:07;;;;;;;6.90;2.58;;;13.20;51.90;;;;;;5073320;28;20470;-60
2021/10/23 06:46:36;;;;;;;7.18;2.55;;;13.30;51.90;;;;;;5071438;28;20465;-58
2021/10/23 06:49:07;;;;;;;10.25;2.95;;;13.30;52.10;;;;;;5073226;28;20032;-58
2021/10/23 06:51:33;;;;;;;9.68;2.75;;;13.40;51.60;;;;;;5052621;28;20041;-57
2021/10/23 06:54:00;;;;;;;7.95;3.70;;;13.40;51.50;;;;;;5052644;28;20029;-57
2021/10/23 06:56:27;;;;;;;12.27;4.38;;;13.40;51.30;;;;;;5052642;28;20029;-59
2021/10/23 06:58:54;;;;;;;7.38;3.42;;;13.50;51.50;;;;;;5053001;28;20025;-57
2021/10/23 07:01:21;;;;;;;10.05;4.22;;;13.60;51.50;;;;;;5033825;28;20048;-58
2021/10/23 07:03:47;;;;;;;9.40;3.55;;;13.70;51.20;;;;;;5052741;28;20025;-57
2021/10/23 07:06:13;;;;;;;7.70;3.05;;;13.70;51.00;;;;;;5053054;28;20453;-60
2021/10/23 07:08:39;;;;;;;14.18;2.95;;;13.70;51.30;;;;;;5053034;28;20458;-57
2021/10/23 07:11:05;;;;;;;7.63;2.75;;;13.70;51.00;;;;;;5018731;28;20025;-57
2021/10/23 07:13:31;;;;;;;9.45;3.42;;;13.80;51.00;;;;;;5051669;28;20063;-58
2021/10/23 07:15:56;;;;;;;6.55;3.33;;;14.10;50.80;;;;;;5052470;28;20033;-57
2021/10/23 07:18:22;;;;;;;7.97;2.70;;;14.80;49.60;;;;;;5051533;28;20032;-56
2021/10/23 07:20:48;;;;;;;9.45;3.20;;;15.10;48.90;;;;;;5034875;28;20037;-57
2021/10/23 07:23:13;;;;;;;6.85;3.15;;;15.20;48.00;;;;;;5052506;28;20546;-55
2021/10/23 07:25:41;;;;;;;5.88;2.80;;;15.50;47.20;;;;;;5034324;28;20394;-57
2021/10/23 07:28:07;;;;;;;7.13;2.75;;;15.20;47.60;;;;;;5052396;28;20350;-56
2021/10/23 07:30:32;;;;;;;10.18;3.58;;;15.00;48.20;;;;;;5051682;28;20083;-56
2021/10/23 07:32:58;;;;;;;10.68;3.75;;;14.70;48.60;;;;;;5052047;28;20035;-58
2021/10/23 07:35:24;;;;;;;9.40;3.50;;;14.60;49.20;;;;;;5051242;28;20151;-53
2021/10/23 07:37:49;;;;;;;6.95;2.90;;;14.60;48.80;;;;;;5051946;28;20029;-54
2021/10/23 07:40:15;;;;;;;8.23;3.38;;;14.50;49.50;;;;;;5051634;28;20501;-60
2021/10/23 07:42:42;;;;;;;8.32;3.25;;;14.60;49.60;;;;;;5051470;28;20047;-54
2021/10/23 07:45:10;;;;;;;6.90;3.33;;;14.90;48.90;;;;;;5034324;28;20050;-58
2021/10/23 07:47:40;;;;;;;7.93;3.17;;;15.00;48.70;;;;;;5051289;28;20478;-58
2021/10/23 07:50:08;;;;;;;7.07;3.00;;;15.30;47.80;;;;;;5052277;28;20123;-57
2021/10/23 07:52:35;;;;;;;8.32;3.15;;;15.20;47.80;;;;;;5033626;28;20458;-56
2021/10/23 07:55:03;;;;;;;8.27;3.58;;;15.10;47.70;;;;;;5052203;28;20024;-58
2021/10/23 07:57:29;;;;;;;6.38;3.33;;;15.00;48.40;;;;;;5050850;28;20463;-57
2021/10/23 07:59:55;;;;;;;7.28;2.90;;;14.80;48.70;;;;;;5051854;28;20032;-57
2021/10/23 08:02:21;;;;;;;8.73;3.55;;;14.80;49.10;;;;;;5050660;28;20421;-59
2021/10/23 08:04:46;;;;;;;10.15;3.33;;;14.80;48.80;;;;;;5033995;28;20497;-57
2021/10/23 08:07:12;;;;;;;10.93;3.58;;;14.70;49.30;;;;;;5033894;28;20083;-57
2021/10/23 08:09:38;;;;;;;9.57;3.00;;;14.60;49.30;;;;;;5051503;28;20458;-54
2021/10/23 08:12:06;;;;;;;10.07;3.03;;;14.70;49.90;;;;;;5051812;28;20029;-57
2021/10/23 08:14:36;;;;;;;8.90;3.30;;;14.90;49.00;;;;;;5051418;28;20036;-56
2021/10/23 08:17:04;;;;;;;7.80;3.00;;;15.00;48.40;;;;;;5051811;28;20025;-56
2021/10/23 08:19:30;;;;;;;8.05;3.35;;;14.90;48.50;;;;;;5051289;28;20022;-56
2021/10/23 08:21:56;;;;;;;10.63;3.58;;;15.00;48.60;;;;;;5051437;28;20025;-57
2021/10/23 08:24:22;;;;;;;6.93;3.10;;;15.00;48.50;;;;;;5051040;28;20470;-56
2021/10/23 08:26:48;;;;;;;5.43;2.80;;;14.90;48.50;;;;;;5033594;28;20043;-58
2021/10/23 08:29:14;;;;;;;10.35;3.20;;;14.90;48.60;;;;;;5051390;28;20025;-58
2021/10/23 08:31:42;;;;;;;7.78;3.05;;;14.80;49.00;;;;;;5050865;28;20060;-53
2021/10/23 08:34:09;;;;;;;6.75;2.90;;;14.70;49.20;;;;;;5051222;28;20024;-57
2021/10/23 08:36:35;;;;;;;7.72;3.28;;;14.60;49.50;;;;;;5051059;28;20021;-57
2021/10/23 08:39:01;;;;;;;9.52;2.97;;;14.50;49.90;;;;;;5033649;28;20029;-56
2021/10/23 08:41:28;;;;;;;8.57;2.88;;;14.40;50.00;;;;;;5051262;28;20045;-58
2021/10/23 08:43:54;;;;;;;7.72;3.20;;;14.40;50.30;;;;;;5033504;28;20033;-54
2021/10/23 08:46:22;;;;;;;7.63;2.85;;;14.60;50.20;;;;;;5033729;28;20427;-58
2021/10/23 08:48:50;;;;;;;8.73;3.05;;;14.70;49.90;;;;;;5051608;28;20064;-54
2021/10/23 08:51:16;;;;;;;9.85;3.00;;;14.90;49.00;;;;;;5051149;28;20041;-56
2021/10/23 08:53:42;;;;;;;8.35;2.50;;;14.90;49.10;;;;;;5033216;28;20087;-57
2021/10/23 08:56:10;;;;;;;7.05;2.60;;;15.10;49.00;;;;;;5051866;28;20025;-57
2021/10/23 08:58:35;;;;;;;7.10;3.10;;;15.30;48.50;;;;;;5033013;28;20033;-55
2021/10/23 09:01:03;;;;;;;6.45;3.08;;;15.40;48.00;;;;;;5033403;28;20040;-57
2021/10/23 09:03:29;;;;;;;8.77;2.97;;;15.40;48.10;;;;;;5050686;28;20025;-58
2021/10/23 09:05:55;;;;;;;12.20;3.35;;;15.40;47.90;;;;;;5032889;28;20063;-57
2021/10/23 09:08:22;;;;;;;7.28;3.20;;;15.30;48.10;;;;;;5051155;28;20036;-57
2021/10/23 09:10:50;;;;;;;7.93;3.00;;;15.20;48.30;;;;;;5036202;28;20075;-58
2021/10/23 09:13:37;;;;;;;8.23;3.05;;;15.10;48.70;;;;;;5055017;28;20144;-56
2021/10/23 09:16:19;;;;;;;7.07;2.42;;;15.00;48.50;;;;;;5036746;28;20032;-58
2021/10/23 09:18:48;;;;;;;6.65;2.90;;;14.80;48.80;;;;;;5036071;28;20025;-56
2021/10/23 09:21:18;;;;;;;8.95;2.88;;;14.70;49.20;;;;;;5054498;28;20021;-60
2021/10/23 09:23:45;;;;;;;7.75;2.83;;;14.60;49.50;;;;;;5053651;28;20470;-58
2021/10/23 09:26:41;;;;;;;8.82;3.05;;;14.70;49.30;;;;;;5054336;28;20025;-59
2021/10/23 09:29:19;;;;;;;7.72;3.10;;;14.80;49.90;;;;;;5022189;28;20049;-62
2021/10/23 09:31:46;;;;;;;12.15;2.60;;;14.80;50.60;;;;;;5053548;28;20025;-57
2021/10/23 09:34:16;;;;;;;12.45;3.05;;;15.00;49.30;;;;;;5054445;28;20047;-58
2021/10/23 09:36:51;;;;;;;11.85;2.90;;;15.10;49.40;;;;;;5035740;28;20040;-56
2021/10/23 09:39:34;;;;;;;7.22;3.08;;;15.30;49.00;;;;;;5036571;28;20021;-58
2021/10/23 09:42:06;;;;;;;6.68;3.17;;;15.30;48.60;;;;;;5054428;28;20025;-59
2021/10/23 09:44:32;;;;;;;8.57;2.60;;;15.50;48.40;;;;;;5053753;28;20037;-56
2021/10/23 09:46:57;;;;;;;8.02;2.70;;;15.60;48.80;;;;;;5019049;28;20037;-60
2021/10/23 09:49:24;;;;;;;7.78;2.95;;;15.90;48.90;;;;;;5034776;28;20029;-57
2021/10/23 09:52:07;;;;;;;7.38;3.35;;;16.20;47.50;;;;;;5054374;28;20028;-59
2021/10/23 09:54:35;;;;;;;5.73;2.60;;;16.30;46.70;;;;;;5053041;28;20060;-60
2021/10/23 09:57:08;;;;;;;8.77;3.38;;;16.30;46.40;;;;;;5054088;28;20339;-56
2021/10/23 09:59:38;;;;;;;5.22;2.63;;;16.30;46.50;;;;;;5036170;28;20040;-52
2021/10/23 10:02:05;;;;;;;4.43;2.63;;;16.20;46.40;;;;;;5035609;28;20036;-57
2021/10/23 10:04:32;;;;;;;10.07;3.08;;;16.30;46.00;;;;;;5053162;28;20110;-58
2021/10/23 10:07:02;;;;;;;8.07;3.00;;;16.40;45.60;;;;;;5034862;28;20029;-60
2021/10/23 10:09:28;;;;;;;10.23;2.58;;;16.40;45.60;;;;;;5052991;28;20021;-61
2021/10/23 10:11:56;;;;;;;8.18;2.58;;;16.40;45.70;;;;;;5052244;28;20086;-60
2021/10/23 10:14:31;;;;;;;7.18;2.40;;;16.50;45.30;;;;;;5035059;28;20056;-59
2021/10/23 10:16:59;;;;;;;8.18;2.53;;;16.60;45.60;;;;;;5035681;28;20057;-59
2021/10/23 10:19:26;;;;;;;4.47;2.13;;;16.50;45.00;;;;;;5053284;28;20174;-61
2021/10/23 10:21:53;;;;;;;5.53;2.60;;;16.50;44.50;;;;;;5052465;28;20112;-57
2021/10/23 10:24:28;;;;;;;8.10;2.53;;;16.50;44.40;;;;;;5053435;28;20021;-60
2021/10/23 10:27:13;;;;;;;4.85;2.30;;;16.50;43.40;;;;;;5053633;28;20033;-56
2021/10/23 10:30:03;;;;;;;9.02;2.53;;;16.60;43.40;;;;;;5052172;28;20035;-56
2021/10/23 10:32:36;;;;;;;9.57;2.45;;;16.50;43.80;;;;;;5034579;28;20028;-59
2021/10/23 10:42:58;;;;;;;8.95;3.55;;;16.70;43.90;;;;;;5052642;28;20118;-56
2021/10/23 10:45:49;;;;;;;8.98;3.47;;;16.60;45.40;;;;;;5034404;28;20025;-59
2021/10/23 10:48:28;;;;;;;8.75;3.28;;;16.70;45.60;;;;;;5034347;28;20037;-59
2021/10/23 10:50:57;;;;;;;13.52;3.83;;;16.90;46.30;;;;;;5049028;28;20044;-59
2021/10/23 10:53:29;;;;;;;9.15;3.75;;;17.20;45.20;;;;;;5016630;28;20029;-60
2021/10/23 10:55:58;;;;;;;8.02;2.80;;;17.30;45.10;;;;;;5051038;28;20103;-62
2021/10/23 10:58:47;;;;;;;17.60;3.17;;;17.30;43.40;;;;;;5048386;28;20032;-70
2021/10/23 11:01:22;;;;;;;10.50;3.00;;;17.30;43.50;;;;;;5049892;28;20025;-63
2021/10/23 11:03:52;;;;;;;8.88;2.88;;;17.30;43.80;;;;;;5032546;28;20438;-65
2021/10/23 11:06:42;;;;;;;6.30;2.90;;;17.50;43.50;;;;;;5031676;28;20040;-65
2021/10/23 11:09:10;;;;;;;6.93;2.85;;;17.40;43.70;;;;;;5051499;28;20188;-66
2021/10/23 11:11:45;;;;;;;8.18;3.03;;;17.30;44.80;;;;;;5050626;28;20079;-68
2021/10/23 11:14:35;;;;;;;9.23;3.22;;;17.10;44.10;;;;;;5050830;28;20036;-65
2021/10/23 11:17:03;;;;;;;7.70;2.70;;;17.10;44.30;;;;;;5052125;28;20033;-67
2021/10/23 11:19:37;;;;;;;7.30;3.10;;;17.10;43.80;;;;;;5051229;28;20040;-65
2021/10/23 11:22:16;;;;;;;7.22;2.90;;;17.10;44.00;;;;;;5051655;28;20023;-67
2021/10/23 11:24:45;;;;;;;9.68;3.78;;;17.10;44.40;;;;;;5051122;28;20029;-68
2021/10/23 11:27:26;;;;;;;10.82;3.65;;;17.20;45.30;;;;;;5050385;28;20366;-68
2021/10/23 11:30:07;;;;;;;11.73;4.38;;;17.40;44.10;;;;;;5033142;28;20028;-66
2021/10/23 11:32:37;;;;;;;9.98;3.72;;;17.60;42.90;;;;;;5027252;28;20025;-66
2021/10/23 11:35:04;;;;;;;9.85;4.70;;;17.60;43.30;;;;;;5030014;28;20079;-68
2021/10/23 11:37:32;;;;;;;9.25;3.88;;;17.50;43.10;;;;;;5030373;28;20433;-68
2021/10/23 11:40:17;;;;;;;8.55;4.18;;;17.20;43.40;;;;;;5049491;28;20462;-65
2021/10/23 11:42:46;;;;;;;8.70;3.85;;;16.90;44.40;;;;;;5032591;28;20078;-69
2021/10/23 11:45:21;;;;;;;11.13;3.78;;;16.70;45.20;;;;;;5051127;28;20037;-69
2021/10/23 11:47:47;;;;;;;8.70;3.00;;;16.50;45.30;;;;;;5031340;28;20029;-70
2021/10/23 11:50:39;;;;;;;12.90;3.50;;;16.50;45.60;;;;;;5049809;28;20120;-67
2021/10/23 11:53:17;;;;;;;10.77;3.70;;;16.20;46.20;;;;;;5050105;28;20025;-69
2021/10/23 11:55:46;;;;;;;10.15;3.28;;;16.20;46.50;;;;;;5031707;28;20064;-68
2021/10/23 11:58:33;;;;;;;11.43;4.72;;;16.10;46.30;;;;;;5049667;28;20029;-68
2021/10/23 12:01:02;;;;;;;10.02;3.45;;;16.10;46.80;;;;;;5032340;28;20041;-69
2021/10/23 12:03:37;;;;;;;8.57;4.45;;;16.10;46.00;;;;;;5050874;28;20086;-68
2021/10/23 12:06:17;;;;;;;12.07;3.92;;;16.20;46.50;;;;;;5033348;28;20104;-67
2021/10/23 12:08:43;;;;;;;7.25;3.70;;;16.30;46.20;;;;;;5032665;28;20029;-68
2021/10/23 12:11:10;;;;;;;7.95;3.45;;;16.30;46.10;;;;;;5050791;28;20024;-67
2021/10/23 12:13:46;;;;;;;10.05;3.38;;;16.40;45.90;;;;;;5032486;28;20029;-67
2021/10/23 12:16:13;;;;;;;7.75;3.53;;;16.50;46.00;;;;;;5033035;28;20079;-69
2021/10/23 12:18:44;;;;;;;8.95;3.20;;;16.40;45.90;;;;;;5032413;28;20021;-67
2021/10/23 12:21:14;;;;;;;11.18;4.90;;;16.40;45.80;;;;;;5033019;28;20021;-68
2021/10/23 12:23:54;;;;;;;8.52;4.03;;;16.30;46.70;;;;;;5050497;28;20040;-69
2021/10/23 12:26:30;;;;;;;7.78;3.30;;;16.30;46.30;;;;;;5033239;28;20025;-67
2021/10/23 12:29:11;;;;;;;8.90;3.55;;;16.30;45.90;;;;;;5049512;28;20045;-68
2021/10/23 12:32:04;;;;;;;13.02;3.33;;;16.10;46.00;;;;;;5032395;28;20056;-68
2021/10/23 12:34:48;;;;;;;13.82;7.68;;;16.00;46.40;;;;;;5050584;28;20024;-72
2021/10/23 12:37:14;;;;;;;9.13;3.70;;;16.20;47.20;;;;;;5050831;28;20032;-71
2021/10/23 12:39:41;;;;;;;7.32;3.42;;;16.30;46.70;;;;;;5032085;28;20079;-69
2021/10/23 12:42:07;;;;;;;11.57;6.53;;;16.30;46.50;;;;;;5049730;28;20089;-68
2021/10/23 12:44:33;;;;;;;16.17;9.70;;;16.30;46.90;;;;;;5051142;28;20113;-68
2021/10/23 12:47:00;;;;;;;17.42;10.68;;;16.20;46.80;;;;;;5054249;28;20029;-68
2021/10/23 12:49:26;;;;;;;12.70;6.80;;;16.20;47.40;;;;;;5036540;28;20033;-68
2021/10/23 12:51:52;;;;;;;19.50;10.90;;;16.10;47.10;;;;;;5053703;28;20064;-67
2021/10/23 12:54:18;;;;;;;13.35;6.82;;;16.00;47.60;;;;;;5036341;28;20146;-67
2021/10/23 12:56:45;;;;;;;9.23;5.15;;;16.10;47.90;;;;;;5036208;28;20462;-67